Concerto — JJ3855 — position and weather

sailwx.info

Track history (hours):
 
Tides and Currents Weather Stations Pressure Air Temp Water Temp Dewpoint Dewpoint Depression Visibility Wind Speed Wind Dir Waves Ship Positions

Concerto

Last reported at 2018-Apr-21 18:59 UTC. Time now 2018-Apr-21 19:03 UTC.
Position N 34°41' E 135°11'.

Length 74 m; draft 3 m.

Type: Passenger vessel. MMSI: 431000448.

Date/timePositionNaut miles runAvg speedWind from/ knotsBaromVisibWave heightAir tempDewpointWater temp
2018-Apr-21 18:59N 34°41' E 135°11'0 0.0
2018-Apr-21 18:29N 34°41' E 135°11'0 0.0
2018-Apr-21 17:59N 34°41' E 135°11'0 0.0
2018-Apr-21 17:29N 34°41' E 135°11'0 0.0
2018-Apr-21 16:59N 34°41' E 135°11'0 0.0
2018-Apr-21 16:29N 34°41' E 135°11'0 0.0
2018-Apr-21 15:59N 34°41' E 135°11'0 0.0
2018-Apr-21 15:29N 34°41' E 135°11'0 0.0
2018-Apr-21 14:59N 34°41' E 135°11'0 0.0
2018-Apr-21 14:29N 34°41' E 135°11'0 0.0
2018-Apr-21 13:59N 34°41' E 135°11'0 0.0
2018-Apr-21 13:29N 34°41' E 135°11'0 0.0
2018-Apr-21 12:59N 34°41' E 135°11'0 0.0
2018-Apr-21 12:29N 34°41' E 135°11'3 5.9
2018-Apr-21 12:00N 34°38' E 135°11'4 8.4
2018-Apr-21 11:30N 34°37' E 135°06'4 7.3
2018-Apr-21 11:01N 34°38' E 135°10'3 5.9
2018-Apr-21 10:30N 34°41' E 135°11'0 0.0
2018-Apr-21 09:58N 34°41' E 135°11'2 4.2
2018-Apr-21 09:30N 34°39' E 135°11'4 7.6
2018-Apr-21 09:00N 34°37' E 135°07'4 8.2
2018-Apr-21 08:30N 34°39' E 135°11'1 3.0
2018-Apr-21 08:00N 34°41' E 135°11'0 0.0
2018-Apr-21 07:30N 34°41' E 135°11'0 0.0
2018-Apr-21 06:57N 34°41' E 135°11'3 6.3
2018-Apr-21 06:31N 34°38' E 135°11'0 0.6
2018-Apr-21 06:00N 34°38' E 135°10'3 5.8
2018-Apr-21 05:30N 34°41' E 135°11'0 0.0
2018-Apr-21 04:59N 34°41' E 135°11'2 4.8
2018-Apr-21 04:30N 34°39' E 135°11'4 7.8
2018-Apr-21 04:00N 34°37' E 135°07'4 8.1
2018-Apr-21 03:30N 34°39' E 135°11'2 3.8
2018-Apr-21 03:00N 34°41' E 135°11'0 0.0
2018-Apr-21 02:22N 34°41' E 135°11'0 0.0
2018-Apr-21 01:58N 34°41' E 135°11'0 0.0
2018-Apr-21 01:28N 34°41' E 135°11'0 0.0
2018-Apr-21 00:58N 34°41' E 135°11'0 0.0
2018-Apr-21 00:28N 34°41' E 135°11'0 0.0
2018-Apr-20 23:58N 34°41' E 135°11'0 0.0
2018-Apr-20 23:28N 34°41' E 135°11'0 0.0
2018-Apr-20 22:58N 34°41' E 135°11'0 0.0
2018-Apr-20 22:28N 34°41' E 135°11'0 0.0
2018-Apr-20 21:58N 34°41' E 135°11'0 0.0
2018-Apr-20 21:28N 34°41' E 135°11'0 0.0
2018-Apr-20 20:58N 34°41' E 135°11'0 0.0
2018-Apr-20 20:28N 34°41' E 135°11'0 0.0
2018-Apr-20 19:58N 34°41' E 135°11'0 0.0
2018-Apr-20 19:28N 34°41' E 135°11'0 0.0
2018-Apr-20 18:58N 34°41' E 135°11'0 0.0
2018-Apr-20 18:28N 34°41' E 135°11'0 0.0
2018-Apr-20 17:58N 34°41' E 135°11'0 0.0
2018-Apr-20 17:28N 34°41' E 135°11'0 0.0
2018-Apr-20 16:58N 34°41' E 135°11'0 0.0
2018-Apr-20 16:28N 34°41' E 135°11'0 0.0
2018-Apr-20 15:58N 34°41' E 135°11'0 0.0
2018-Apr-20 15:28N 34°41' E 135°11'0 0.0
2018-Apr-20 14:58N 34°41' E 135°11'0 0.0
2018-Apr-20 14:28N 34°41' E 135°11'0 0.0
2018-Apr-20 13:58N 34°41' E 135°11'0 0.0
2018-Apr-20 13:28N 34°41' E 135°11'0 0.0
2018-Apr-20 12:58N 34°41' E 135°11'0 0.0
2018-Apr-20 12:28N 34°41' E 135°11'2 5.2
2018-Apr-20 12:00N 34°38' E 135°11'4 8.1
2018-Apr-20 11:30N 34°37' E 135°06'3 6.0
2018-Apr-20 11:00N 34°38' E 135°10'3 5.9
2018-Apr-20 10:30N 34°41' E 135°11'0 0.0
2018-Apr-20 10:00N 34°41' E 135°11'2 4.6
2018-Apr-20 09:30N 34°39' E 135°11'4 7.3
2018-Apr-20 09:01N 34°37' E 135°07'4 8.1
2018-Apr-20 08:30N 34°39' E 135°11'1 2.7
2018-Apr-20 07:59N 34°41' E 135°11'0 0.0
2018-Apr-20 07:29N 34°41' E 135°11'0 0.0
2018-Apr-20 06:59N 34°41' E 135°11'3 5.6
2018-Apr-20 06:31N 34°38' E 135°11'1 1.9
2018-Apr-20 06:00N 34°38' E 135°10'3 6.1
2018-Apr-20 05:31N 34°41' E 135°11'0 0.0
2018-Apr-20 05:00N 34°41' E 135°11'2 4.0
2018-Apr-20 04:30N 34°39' E 135°11'4 8.0
2018-Apr-20 04:01N 34°37' E 135°07'2 4.8
2018-Apr-20 03:31N 34°38' E 135°10'3 5.9
2018-Apr-20 03:00N 34°41' E 135°11'0 0.0
2018-Apr-20 02:29N 34°41' E 135°11'0 0.0
2018-Apr-20 01:59N 34°41' E 135°11'0 0.0
2018-Apr-20 01:29N 34°41' E 135°11'0 0.0
2018-Apr-20 00:59N 34°41' E 135°11'0 0.0
2018-Apr-20 00:29N 34°41' E 135°11'0 0.0
2018-Apr-19 23:59N 34°41' E 135°11'0 0.0
2018-Apr-19 23:29N 34°41' E 135°11'0 0.0
2018-Apr-19 22:59N 34°41' E 135°11'0 0.0
2018-Apr-19 22:29N 34°41' E 135°11'0 0.0
2018-Apr-19 21:59N 34°41' E 135°11'0 0.0
2018-Apr-19 21:29N 34°41' E 135°11'0 0.0
2018-Apr-19 20:59N 34°41' E 135°11'0 0.0
2018-Apr-19 20:29N 34°41' E 135°11'0 0.0
2018-Apr-19 19:59N 34°41' E 135°11'0 0.0
2018-Apr-19 19:29N 34°41' E 135°11'0 0.0
2018-Apr-19 18:59N 34°41' E 135°11'0 0.0
2018-Apr-19 18:29N 34°41' E 135°11'0 0.0
2018-Apr-19 17:59N 34°41' E 135°11'0 0.0
2018-Apr-19 17:29N 34°41' E 135°11'0 0.0
2018-Apr-19 16:59N 34°41' E 135°11'0 0.0
2018-Apr-19 16:29N 34°41' E 135°11'0 0.0
2018-Apr-19 15:59N 34°41' E 135°11'0 0.0
2018-Apr-19 15:29N 34°41' E 135°11'0 0.0
2018-Apr-19 14:59N 34°41' E 135°11'0 0.0
2018-Apr-19 14:29N 34°41' E 135°11'0 0.0
2018-Apr-19 13:59N 34°41' E 135°11'0 0.0
2018-Apr-19 13:29N 34°41' E 135°11'0 0.0
2018-Apr-19 12:59N 34°41' E 135°11'0 0.0
2018-Apr-19 12:29N 34°41' E 135°11'2 5.1
2018-Apr-19 12:00N 34°38' E 135°11'3 6.5
2018-Apr-19 11:30N 34°37' E 135°07'2 4.6
2018-Apr-19 11:00N 34°38' E 135°10'3 6.0
2018-Apr-19 10:30N 34°41' E 135°11'0 0.0
2018-Apr-19 10:00N 34°41' E 135°11'3 5.4
2018-Apr-19 09:30N 34°38' E 135°11'3 6.5
2018-Apr-19 09:00N 34°37' E 135°07'4 8.5
2018-Apr-19 08:30N 34°40' E 135°11'1 2.6
2018-Apr-19 08:00N 34°41' E 135°11'0 0.0
2018-Apr-19 07:30N 34°41' E 135°11'0 0.0
2018-Apr-19 07:00N 34°41' E 135°11'2 4.6
2018-Apr-19 06:30N 34°39' E 135°11'1 2.3
2018-Apr-19 06:00N 34°38' E 135°10'3 6.0
2018-Apr-19 05:30N 34°41' E 135°11'0 0.0
2018-Apr-19 05:00N 34°41' E 135°11'2 3.8
2018-Apr-19 04:30N 34°39' E 135°11'4 7.9
2018-Apr-19 04:00N 34°37' E 135°07'2 4.9
2018-Apr-19 03:30N 34°38' E 135°10'3 5.9
2018-Apr-19 03:00N 34°41' E 135°11'0 0.0
2018-Apr-19 02:29N 34°41' E 135°11'0 0.0
2018-Apr-19 01:59N 34°41' E 135°11'0 0.0
2018-Apr-19 01:29N 34°41' E 135°11'0 0.0
2018-Apr-19 00:59N 34°41' E 135°11'0 0.0
2018-Apr-19 00:29N 34°41' E 135°11'0 0.0
2018-Apr-18 23:56N 34°41' E 135°11'0 0.0
2018-Apr-18 23:29N 34°41' E 135°11'0 0.0
2018-Apr-18 22:59N 34°41' E 135°11'0 0.0
2018-Apr-18 22:29N 34°41' E 135°11'0 0.0
2018-Apr-18 21:59N 34°41' E 135°11'0 0.0
2018-Apr-18 21:29N 34°41' E 135°11'0 0.0
2018-Apr-18 20:56N 34°41' E 135°11'0 0.0
2018-Apr-18 20:29N 34°41' E 135°11'0 0.0
2018-Apr-18 19:59N 34°41' E 135°11'0 0.0
2018-Apr-18 19:29N 34°41' E 135°11'0 0.0
2018-Apr-18 18:59N 34°41' E 135°11'0 0.0
2018-Apr-18 18:29N 34°41' E 135°11'0 0.0
2018-Apr-18 17:59N 34°41' E 135°11'0 0.0
2018-Apr-18 17:29N 34°41' E 135°11'0 0.0
2018-Apr-18 16:59N 34°41' E 135°11'0 0.0
2018-Apr-18 16:29N 34°41' E 135°11'0 0.0
2018-Apr-18 15:59N 34°41' E 135°11'0 0.0
2018-Apr-18 15:29N 34°41' E 135°11'0 0.0
2018-Apr-18 14:59N 34°41' E 135°11'0 0.0
2018-Apr-18 14:29N 34°41' E 135°11'0 0.0
2018-Apr-18 13:59N 34°41' E 135°11'0 0.0
2018-Apr-18 13:29N 34°41' E 135°11'0 0.0
2018-Apr-18 12:59N 34°41' E 135°11'0 0.0
2018-Apr-18 12:29N 34°41' E 135°11'3 5.3
2018-Apr-18 12:00N 34°38' E 135°11'4 7.9
2018-Apr-18 11:30N 34°37' E 135°06'3 5.6
2018-Apr-18 11:00N 34°38' E 135°10'3 6.5
2018-Apr-18 10:30N 34°41' E 135°11'0 0.0
2018-Apr-18 10:00N 34°41' E 135°11'2 4.6
2018-Apr-18 09:30N 34°39' E 135°11'4 7.2
2018-Apr-18 09:00N 34°37' E 135°07'4 8.3
2018-Apr-18 08:31N 34°39' E 135°11'1 2.4
2018-Apr-18 07:55N 34°41' E 135°11'0 0.0
2018-Apr-18 07:28N 34°41' E 135°11'0 0.0
2018-Apr-18 06:58N 34°41' E 135°11'3 6.3
2018-Apr-18 06:30N 34°38' E 135°11'1 1.5
2018-Apr-18 06:00N 34°38' E 135°10'3 5.9
2018-Apr-18 05:31N 34°41' E 135°11'0 0.0
2018-Apr-18 04:59N 34°41' E 135°11'2 4.1
2018-Apr-18 04:30N 34°39' E 135°11'4 7.3
2018-Apr-18 04:00N 34°37' E 135°08'2 4.2
2018-Apr-18 03:30N 34°38' E 135°10'3 6.1
2018-Apr-18 03:00N 34°41' E 135°11'0 0.0
2018-Apr-18 02:28N 34°41' E 135°11'0 0.0
2018-Apr-18 01:58N 34°41' E 135°11'0 0.0
2018-Apr-18 01:28N 34°41' E 135°11'0 0.0
2018-Apr-18 00:58N 34°41' E 135°11'0 0.0
2018-Apr-18 00:28N 34°41' E 135°11'0 0.0
2018-Apr-17 23:58N 34°41' E 135°11'0 0.0
2018-Apr-17 23:28N 34°41' E 135°11'0 0.0
2018-Apr-17 22:58N 34°41' E 135°11'0 0.0
2018-Apr-17 22:28N 34°41' E 135°11'0 0.0
2018-Apr-17 21:58N 34°41' E 135°11'0 0.0
2018-Apr-17 21:28N 34°41' E 135°11'0 0.0
2018-Apr-17 20:58N 34°41' E 135°11'0 0.0
2018-Apr-17 20:28N 34°41' E 135°11'0 0.0
2018-Apr-17 19:58N 34°41' E 135°11'0 0.0
2018-Apr-17 19:28N 34°41' E 135°11'0 0.0
2018-Apr-17 18:58N 34°41' E 135°11'0 0.0
2018-Apr-17 18:28N 34°41' E 135°11'0 0.0
2018-Apr-17 17:58N 34°41' E 135°11'0 0.0
2018-Apr-17 17:28N 34°41' E 135°11'0 0.0
2018-Apr-17 16:58N 34°41' E 135°11'0 0.0
2018-Apr-17 16:28N 34°41' E 135°11'0 0.0
2018-Apr-17 15:58N 34°41' E 135°11'0 0.0
2018-Apr-17 15:28N 34°41' E 135°11'0 0.0
2018-Apr-17 14:58N 34°41' E 135°11'0 0.0
2018-Apr-17 14:28N 34°41' E 135°11'0 0.0
2018-Apr-17 13:58N 34°41' E 135°11'0 0.0
2018-Apr-17 13:28N 34°41' E 135°11'0 0.0
2018-Apr-17 12:58N 34°41' E 135°11'0 0.0
2018-Apr-17 12:28N 34°41' E 135°11'3 5.7
2018-Apr-17 12:00N 34°38' E 135°11'4 7.5
2018-Apr-17 11:30N 34°37' E 135°06'3 5.6
2018-Apr-17 11:00N 34°38' E 135°10'3 6.4
2018-Apr-17 10:30N 34°41' E 135°11'0 0.0
2018-Apr-17 09:59N 34°41' E 135°11'3 5.4
2018-Apr-17 09:30N 34°38' E 135°11'3 6.7
2018-Apr-17 09:00N 34°37' E 135°07'5 9.0
2018-Apr-17 08:30N 34°40' E 135°11'1 2.1
2018-Apr-17 07:59N 34°41' E 135°11'0 0.0
2018-Apr-17 07:29N 34°41' E 135°11'0 0.0
2018-Apr-17 06:59N 34°41' E 135°11'3 5.5
2018-Apr-17 06:30N 34°38' E 135°10'1 1.1
2018-Apr-17 06:01N 34°38' E 135°10'3 5.8
2018-Apr-17 05:30N 34°41' E 135°11'0 0.0
2018-Apr-17 04:58N 34°41' E 135°11'2 4.3
2018-Apr-17 04:31N 34°39' E 135°11'4 8.0
2018-Apr-17 04:00N 34°37' E 135°07'2 4.9
2018-Apr-17 03:30N 34°38' E 135°10'3 6.2
2018-Apr-17 02:59N 34°41' E 135°11'0 0.0
2018-Apr-17 02:30N 34°41' E 135°11'0 0.0
2018-Apr-17 02:00N 34°41' E 135°11'0 0.0
2018-Apr-17 01:29N 34°41' E 135°11'0 0.0
2018-Apr-17 00:58N 34°41' E 135°11'0 0.0
2018-Apr-17 00:29N 34°41' E 135°11'0 0.0
2018-Apr-16 23:59N 34°41' E 135°11'0 0.0
2018-Apr-16 23:29N 34°41' E 135°11'0 0.0
2018-Apr-16 22:59N 34°41' E 135°11'0 0.0
2018-Apr-16 22:29N 34°41' E 135°11'0 0.0
2018-Apr-16 21:58N 34°41' E 135°11'0 0.0
2018-Apr-16 21:28N 34°41' E 135°11'0 0.0
2018-Apr-16 20:58N 34°41' E 135°11'0 0.0
2018-Apr-16 20:29N 34°41' E 135°11'0 0.0
2018-Apr-16 19:59N 34°41' E 135°11'0 0.0
2018-Apr-16 19:29N 34°41' E 135°11'0 0.0
2018-Apr-16 18:59N 34°41' E 135°11'0 0.0
2018-Apr-16 18:28N 34°41' E 135°11'0 0.0
2018-Apr-16 17:58N 34°41' E 135°11'0 0.0
2018-Apr-16 17:29N 34°41' E 135°11'0 0.0
2018-Apr-16 16:59N 34°41' E 135°11'0 0.0
2018-Apr-16 16:28N 34°41' E 135°11'0 0.0
2018-Apr-16 15:59N 34°41' E 135°11'0 0.0
2018-Apr-16 15:28N 34°41' E 135°11'0 0.0
2018-Apr-16 14:58N 34°41' E 135°11'0 0.0
2018-Apr-16 14:28N 34°41' E 135°11'0 0.0
2018-Apr-16 13:58N 34°41' E 135°11'0 0.0
2018-Apr-16 13:28N 34°41' E 135°11'0 0.0
2018-Apr-16 12:58N 34°41' E 135°11'0 0.0
2018-Apr-16 12:28N 34°41' E 135°11'3 5.5
2018-Apr-16 12:00N 34°38' E 135°11'4 7.7
2018-Apr-16 11:30N 34°37' E 135°06'3 5.2
2018-Apr-16 11:01N 34°38' E 135°09'3 6.8
2018-Apr-16 10:30N 34°41' E 135°11'0 0.0
2018-Apr-16 10:00N 34°41' E 135°11'3 5.3
2018-Apr-16 09:30N 34°38' E 135°11'4 7.1
2018-Apr-16 09:00N 34°37' E 135°07'5 9.0
2018-Apr-16 08:30N 34°39' E 135°11'1 2.8
2018-Apr-16 08:00N 34°41' E 135°11'0 0.0
2018-Apr-16 07:29N 34°41' E 135°11'0 0.0
2018-Apr-16 06:59N 34°41' E 135°11'3 5.4
2018-Apr-16 06:30N 34°38' E 135°11'1 1.6
2018-Apr-16 06:01N 34°38' E 135°10'3 6.0
2018-Apr-16 05:30N 34°41' E 135°11'0 0.0
2018-Apr-16 05:00N 34°41' E 135°11'2 3.9
2018-Apr-16 04:30N 34°39' E 135°11'4 7.8
2018-Apr-16 04:00N 34°37' E 135°07'2 4.9
2018-Apr-16 03:30N 34°38' E 135°10'3 5.4
2018-Apr-16 02:59N 34°41' E 135°11'0 0.0
2018-Apr-16 02:30N 34°41' E 135°11'0 0.0
2018-Apr-16 02:00N 34°41' E 135°11'0 0.0
2018-Apr-16 01:30N 34°41' E 135°11'0 0.0
2018-Apr-16 01:00N 34°41' E 135°11'0 0.0
2018-Apr-16 00:30N 34°41' E 135°11'0 0.0
2018-Apr-16 00:00N 34°41' E 135°11'0 0.0
2018-Apr-15 23:30N 34°41' E 135°11'0 0.0
2018-Apr-15 23:00N 34°41' E 135°11'0 0.0
2018-Apr-15 22:30N 34°41' E 135°11'0 0.0
2018-Apr-15 22:00N 34°41' E 135°11'0 0.0
2018-Apr-15 21:30N 34°41' E 135°11'0 0.0
2018-Apr-15 21:00N 34°41' E 135°11'0 0.0
2018-Apr-15 20:30N 34°41' E 135°11'0 0.0
2018-Apr-15 20:00N 34°41' E 135°11'0 0.0
2018-Apr-15 19:30N 34°41' E 135°11'0 0.0
2018-Apr-15 19:00N 34°41' E 135°11'0 0.0
2018-Apr-15 18:30N 34°41' E 135°11'0 0.0
2018-Apr-15 18:00N 34°41' E 135°11'0 0.0
2018-Apr-15 17:30N 34°41' E 135°11'0 0.0
2018-Apr-15 17:00N 34°41' E 135°11'0 0.0
2018-Apr-15 16:30N 34°41' E 135°11'0 0.0
2018-Apr-15 16:00N 34°41' E 135°11'0 0.0
2018-Apr-15 15:30N 34°41' E 135°11'0 0.0
2018-Apr-15 15:00N 34°41' E 135°11'0 0.0
2018-Apr-15 14:30N 34°41' E 135°11'0 0.0
2018-Apr-15 14:00N 34°41' E 135°11'0 0.0
2018-Apr-15 13:30N 34°41' E 135°11'0 0.0
2018-Apr-15 13:00N 34°41' E 135°11'0 0.0
2018-Apr-15 12:30N 34°41' E 135°11'2 5.0
2018-Apr-15 12:00N 34°38' E 135°11'4 8.0
2018-Apr-15 11:30N 34°36' E 135°06'3 5.9
2018-Apr-15 11:00N 34°38' E 135°10'3 6.5
2018-Apr-15 10:30N 34°41' E 135°11'0 0.0
2018-Apr-15 09:59N 34°41' E 135°11'3 5.3
2018-Apr-15 09:30N 34°38' E 135°11'3 7.0
2018-Apr-15 09:01N 34°37' E 135°07'5 9.0
2018-Apr-15 08:30N 34°39' E 135°11'1 2.7
2018-Apr-15 07:58N 34°41' E 135°11'0 0.0
2018-Apr-15 07:28N 34°41' E 135°11'0 0.0
2018-Apr-15 06:58N 34°41' E 135°11'3 6.3
2018-Apr-15 06:31N 34°38' E 135°11'0 0.7
2018-Apr-15 06:00N 34°38' E 135°10'3 5.6
2018-Apr-15 05:30N 34°41' E 135°11'0 0.0
2018-Apr-15 05:00N 34°41' E 135°11'2 3.7
2018-Apr-15 04:31N 34°39' E 135°11'4 7.4
2018-Apr-15 04:00N 34°37' E 135°08'2 4.5
2018-Apr-15 03:31N 34°38' E 135°10'3 6.1
2018-Apr-15 03:00N 34°41' E 135°11'0 0.0
2018-Apr-15 02:30N 34°41' E 135°11'0 0.0
2018-Apr-15 02:00N 34°41' E 135°11'0 0.0
2018-Apr-15 01:30N 34°41' E 135°11'0 0.0
2018-Apr-15 00:57N 34°41' E 135°11'0 0.0
2018-Apr-15 00:30N 34°41' E 135°11'0 0.0
2018-Apr-15 00:00N 34°41' E 135°11'0 0.0
2018-Apr-14 23:30N 34°41' E 135°11'0 0.0
2018-Apr-14 23:00N 34°41' E 135°11'0 0.0
2018-Apr-14 22:30N 34°41' E 135°11'0 0.0
2018-Apr-14 22:00N 34°41' E 135°11'0 0.0
2018-Apr-14 21:30N 34°41' E 135°11'0 0.0
2018-Apr-14 20:57N 34°41' E 135°11'0 0.0
2018-Apr-14 20:30N 34°41' E 135°11'0 0.0
2018-Apr-14 20:00N 34°41' E 135°11'0 0.0
2018-Apr-14 19:30N 34°41' E 135°11'0 0.0
2018-Apr-14 19:00N 34°41' E 135°11'0 0.0
2018-Apr-14 18:30N 34°41' E 135°11'0 0.0
2018-Apr-14 18:00N 34°41' E 135°11'0 0.0
2018-Apr-14 17:30N 34°41' E 135°11'0 0.0
2018-Apr-14 17:00N 34°41' E 135°11'0 0.0
2018-Apr-14 16:30N 34°41' E 135°11'0 0.0
2018-Apr-14 16:00N 34°41' E 135°11'0 0.0
2018-Apr-14 15:30N 34°41' E 135°11'0 0.0
2018-Apr-14 15:00N 34°41' E 135°11'0 0.0
2018-Apr-14 14:30N 34°41' E 135°11'0 0.0
2018-Apr-14 14:00N 34°41' E 135°11'0 0.0
2018-Apr-14 13:30N 34°41' E 135°11'0 0.0
2018-Apr-14 13:00N 34°41' E 135°11'0 0.0
2018-Apr-14 12:30N 34°41' E 135°11'2 3.3
2018-Apr-14 12:01N 34°39' E 135°11'4 7.1
2018-Apr-14 11:31N 34°37' E 135°08'2 4.0
2018-Apr-14 11:01N 34°38' E 135°10'3 5.8
2018-Apr-14 10:31N 34°41' E 135°11'0 0.0
2018-Apr-14 09:57N 34°41' E 135°11'2 4.1
2018-Apr-14 09:30N 34°39' E 135°11'3 5.0
2018-Apr-14 09:00N 34°37' E 135°09'3 6.6
2018-Apr-14 08:30N 34°40' E 135°11'1 1.8
2018-Apr-14 07:59N 34°41' E 135°11'0 0.0
2018-Apr-14 07:29N 34°41' E 135°11'0 0.0
2018-Apr-14 06:59N 34°41' E 135°11'1 2.3
2018-Apr-14 06:30N 34°40' E 135°12'2 3.5
2018-Apr-14 06:00N 34°38' E 135°11'3 5.0
2018-Apr-14 05:30N 34°41' E 135°11'0 0.0
2018-Apr-14 04:58N 34°41' E 135°11'2 4.3
2018-Apr-14 04:30N 34°39' E 135°11'3 6.7
2018-Apr-14 04:00N 34°37' E 135°08'2 3.8
2018-Apr-14 03:30N 34°38' E 135°10'3 5.8
2018-Apr-14 03:00N 34°41' E 135°11'0 0.0
2018-Apr-14 02:30N 34°41' E 135°11'0 0.0
2018-Apr-14 01:58N 34°41' E 135°11'0 0.0
2018-Apr-14 01:28N 34°41' E 135°11'0 0.0
2018-Apr-14 00:58N 34°41' E 135°11'0 0.0
2018-Apr-14 00:25N 34°41' E 135°11'0 0.0
2018-Apr-13 23:58N 34°41' E 135°11'0 0.0
2018-Apr-13 23:28N 34°41' E 135°11'0 0.0
2018-Apr-13 22:58N 34°41' E 135°11'0 0.0
2018-Apr-13 22:28N 34°41' E 135°11'0 0.0
2018-Apr-13 21:58N 34°41' E 135°11'0 0.0
2018-Apr-13 21:28N 34°41' E 135°11'0 0.0
2018-Apr-13 20:58N 34°41' E 135°11'0 0.0
2018-Apr-13 20:28N 34°41' E 135°11'0 0.0
2018-Apr-13 19:58N 34°41' E 135°11'0 0.0
2018-Apr-13 19:28N 34°41' E 135°11'0 0.0
2018-Apr-13 18:55N 34°41' E 135°11'0 0.0
2018-Apr-13 18:28N 34°41' E 135°11'0 0.0
2018-Apr-13 17:58N 34°41' E 135°11'0 0.0
2018-Apr-13 17:28N 34°41' E 135°11'0 0.0
2018-Apr-13 16:58N 34°41' E 135°11'0 0.0
2018-Apr-13 16:28N 34°41' E 135°11'0 0.0
2018-Apr-13 15:58N 34°41' E 135°11'0 0.0
2018-Apr-13 15:28N 34°41' E 135°11'0 0.0
2018-Apr-13 14:58N 34°41' E 135°11'0 0.0
2018-Apr-13 14:28N 34°41' E 135°11'0 0.0
2018-Apr-13 13:58N 34°41' E 135°11'0 0.0
2018-Apr-13 13:28N 34°41' E 135°11'0 0.0
2018-Apr-13 12:58N 34°41' E 135°11'0 0.0
2018-Apr-13 12:28N 34°41' E 135°11'3 5.6
2018-Apr-13 12:00N 34°38' E 135°11'3 5.2
2018-Apr-13 11:30N 34°37' E 135°08'2 3.2
2018-Apr-13 11:00N 34°38' E 135°10'3 6.7
2018-Apr-13 10:30N 34°41' E 135°11'0 0.0
2018-Apr-13 09:59N 34°41' E 135°11'3 5.9
2018-Apr-13 09:30N 34°38' E 135°10'3 6.9
2018-Apr-13 09:00N 34°37' E 135°06'5 9.6
2018-Apr-13 08:31N 34°39' E 135°11'2 3.1
2018-Apr-13 08:00N 34°41' E 135°11'0 0.0
2018-Apr-13 07:30N 34°41' E 135°11'0 0.0
2018-Apr-13 07:00N 34°41' E 135°11'2 5.1
2018-Apr-13 06:31N 34°38' E 135°11'1 2.4
2018-Apr-13 06:00N 34°38' E 135°10'3 6.2
2018-Apr-13 05:30N 34°41' E 135°11'0 0.0
2018-Apr-13 04:58N 34°41' E 135°11'2 4.5
2018-Apr-13 04:30N 34°39' E 135°11'4 7.6
2018-Apr-13 04:00N 34°37' E 135°07'2 4.9
2018-Apr-13 03:31N 34°38' E 135°10'3 6.3
2018-Apr-13 03:00N 34°41' E 135°11'0 0.0
2018-Apr-13 02:29N 34°41' E 135°11'0 0.0
2018-Apr-13 01:59N 34°41' E 135°11'0 0.0
2018-Apr-13 01:29N 34°41' E 135°11'0 0.0
2018-Apr-13 00:59N 34°41' E 135°11'0 0.0
2018-Apr-13 00:29N 34°41' E 135°11'0 0.0
2018-Apr-12 23:59N 34°41' E 135°11'0 0.0
2018-Apr-12 23:29N 34°41' E 135°11'0 0.0
2018-Apr-12 22:59N 34°41' E 135°11'0 0.0
2018-Apr-12 22:29N 34°41' E 135°11'0 0.0
2018-Apr-12 21:59N 34°41' E 135°11'0 0.0
2018-Apr-12 21:26N 34°41' E 135°11'0 0.0
2018-Apr-12 20:59N 34°41' E 135°11'0 0.0
2018-Apr-12 20:29N 34°41' E 135°11'0 0.0
2018-Apr-12 19:59N 34°41' E 135°11'0 0.0
2018-Apr-12 19:29N 34°41' E 135°11'0 0.0
2018-Apr-12 18:59N 34°41' E 135°11'0 0.0
2018-Apr-12 18:28N 34°41' E 135°11'0 0.0
2018-Apr-12 17:59N 34°41' E 135°11'0 0.0
2018-Apr-12 17:29N 34°41' E 135°11'0 0.0
2018-Apr-12 16:59N 34°41' E 135°11'0 0.0
2018-Apr-12 16:29N 34°41' E 135°11'0 0.0
2018-Apr-12 15:59N 34°41' E 135°11'0 0.0
2018-Apr-12 15:29N 34°41' E 135°11'0 0.0
2018-Apr-12 14:59N 34°41' E 135°11'0 0.0
2018-Apr-12 14:29N 34°41' E 135°11'0 0.0
2018-Apr-12 13:59N 34°41' E 135°11'0 0.0
2018-Apr-12 13:29N 34°41' E 135°11'0 0.0
2018-Apr-12 12:59N 34°41' E 135°11'0 0.0
2018-Apr-12 12:29N 34°41' E 135°11'2 5.2
2018-Apr-12 12:00N 34°38' E 135°11'4 7.3
2018-Apr-12 11:30N 34°37' E 135°07'2 4.5
2018-Apr-12 11:00N 34°38' E 135°09'3 6.4
2018-Apr-12 10:30N 34°41' E 135°11'0 0.0
2018-Apr-12 09:57N 34°41' E 135°11'3 5.7
2018-Apr-12 09:30N 34°38' E 135°10'3 6.5
2018-Apr-12 09:00N 34°37' E 135°07'4 8.7
2018-Apr-12 08:30N 34°39' E 135°11'1 2.8
2018-Apr-12 07:59N 34°41' E 135°11'0 0.0
2018-Apr-12 07:29N 34°41' E 135°11'0 0.0
2018-Apr-12 06:59N 34°41' E 135°11'3 5.3
2018-Apr-12 06:30N 34°38' E 135°11'1 1.4
2018-Apr-12 06:00N 34°38' E 135°10'3 6.1
2018-Apr-12 05:30N 34°41' E 135°11'0 0.0
2018-Apr-12 04:59N 34°41' E 135°11'2 4.3
2018-Apr-12 04:30N 34°39' E 135°11'3 6.6
2018-Apr-12 04:00N 34°37' E 135°08'2 3.9
2018-Apr-12 03:30N 34°38' E 135°10'3 6.0
2018-Apr-12 03:00N 34°41' E 135°11'0 0.0
2018-Apr-12 02:29N 34°41' E 135°11'0 0.0
2018-Apr-12 01:59N 34°41' E 135°11'0 0.0
2018-Apr-12 01:29N 34°41' E 135°11'0 0.0
2018-Apr-12 00:59N 34°41' E 135°11'0 0.0
2018-Apr-12 00:29N 34°41' E 135°11'0 0.0
2018-Apr-11 23:59N 34°41' E 135°11'0 0.0
2018-Apr-11 23:29N 34°41' E 135°11'0 0.0
2018-Apr-11 22:59N 34°41' E 135°11'0 0.0
2018-Apr-11 22:29N 34°41' E 135°11'0 0.0
2018-Apr-11 21:59N 34°41' E 135°11'0 0.0
2018-Apr-11 21:29N 34°41' E 135°11'0 0.0
2018-Apr-11 20:59N 34°41' E 135°11'0 0.0
2018-Apr-11 20:29N 34°41' E 135°11'0 0.0
2018-Apr-11 19:59N 34°41' E 135°11'0 0.0
2018-Apr-11 19:29N 34°41' E 135°11'0 0.0
2018-Apr-11 18:59N 34°41' E 135°11'  
Track history (hours):
 
Tides and Currents Weather Stations Pressure Air Temp Water Temp Dewpoint Dewpoint Depression Visibility Wind Speed Wind Dir Waves Ship Positions

Concerto

Last reported at 2018-Apr-21 18:59 UTC. Time now 2018-Apr-21 19:03 UTC.
Position N 34°41' E 135°11'.

Length 74 m; draft 3 m.

Type: Passenger vessel. MMSI: 431000448.

Date/timePositionNaut miles runAvg speedWind from/ knotsBaromVisibWave heightAir tempDewpointWater temp
2018-Apr-21 18:59N 34°41' E 135°11'0 0.0
2018-Apr-21 18:29N 34°41' E 135°11'0 0.0
2018-Apr-21 17:59N 34°41' E 135°11'0 0.0
2018-Apr-21 17:29N 34°41' E 135°11'0 0.0
2018-Apr-21 16:59N 34°41' E 135°11'0 0.0
2018-Apr-21 16:29N 34°41' E 135°11'0 0.0
2018-Apr-21 15:59N 34°41' E 135°11'0 0.0
2018-Apr-21 15:29N 34°41' E 135°11'0 0.0
2018-Apr-21 14:59N 34°41' E 135°11'0 0.0
2018-Apr-21 14:29N 34°41' E 135°11'0 0.0
2018-Apr-21 13:59N 34°41' E 135°11'0 0.0
2018-Apr-21 13:29N 34°41' E 135°11'0 0.0
2018-Apr-21 12:59N 34°41' E 135°11'0 0.0
2018-Apr-21 12:29N 34°41' E 135°11'3 5.9
2018-Apr-21 12:00N 34°38' E 135°11'4 8.4
2018-Apr-21 11:30N 34°37' E 135°06'4 7.3
2018-Apr-21 11:01N 34°38' E 135°10'3 5.9
2018-Apr-21 10:30N 34°41' E 135°11'0 0.0
2018-Apr-21 09:58N 34°41' E 135°11'2 4.2
2018-Apr-21 09:30N 34°39' E 135°11'4 7.6
2018-Apr-21 09:00N 34°37' E 135°07'4 8.2
2018-Apr-21 08:30N 34°39' E 135°11'1 3.0
2018-Apr-21 08:00N 34°41' E 135°11'0 0.0
2018-Apr-21 07:30N 34°41' E 135°11'0 0.0
2018-Apr-21 06:57N 34°41' E 135°11'3 6.3
2018-Apr-21 06:31N 34°38' E 135°11'0 0.6
2018-Apr-21 06:00N 34°38' E 135°10'3 5.8
2018-Apr-21 05:30N 34°41' E 135°11'0 0.0
2018-Apr-21 04:59N 34°41' E 135°11'2 4.8
2018-Apr-21 04:30N 34°39' E 135°11'4 7.8
2018-Apr-21 04:00N 34°37' E 135°07'4 8.1
2018-Apr-21 03:30N 34°39' E 135°11'2 3.8
2018-Apr-21 03:00N 34°41' E 135°11'0 0.0
2018-Apr-21 02:22N 34°41' E 135°11'0 0.0
2018-Apr-21 01:58N 34°41' E 135°11'0 0.0
2018-Apr-21 01:28N 34°41' E 135°11'0 0.0
2018-Apr-21 00:58N 34°41' E 135°11'0 0.0
2018-Apr-21 00:28N 34°41' E 135°11'0 0.0
2018-Apr-20 23:58N 34°41' E 135°11'0 0.0
2018-Apr-20 23:28N 34°41' E 135°11'0 0.0
2018-Apr-20 22:58N 34°41' E 135°11'0 0.0
2018-Apr-20 22:28N 34°41' E 135°11'0 0.0
2018-Apr-20 21:58N 34°41' E 135°11'0 0.0
2018-Apr-20 21:28N 34°41' E 135°11'0 0.0
2018-Apr-20 20:58N 34°41' E 135°11'0 0.0
2018-Apr-20 20:28N 34°41' E 135°11'0 0.0
2018-Apr-20 19:58N 34°41' E 135°11'0 0.0
2018-Apr-20 19:28N 34°41' E 135°11'0 0.0
2018-Apr-20 18:58N 34°41' E 135°11'0 0.0
2018-Apr-20 18:28N 34°41' E 135°11'0 0.0
2018-Apr-20 17:58N 34°41' E 135°11'0 0.0
2018-Apr-20 17:28N 34°41' E 135°11'0 0.0
2018-Apr-20 16:58N 34°41' E 135°11'0 0.0
2018-Apr-20 16:28N 34°41' E 135°11'0 0.0
2018-Apr-20 15:58N 34°41' E 135°11'0 0.0
2018-Apr-20 15:28N 34°41' E 135°11'0 0.0
2018-Apr-20 14:58N 34°41' E 135°11'0 0.0
2018-Apr-20 14:28N 34°41' E 135°11'0 0.0
2018-Apr-20 13:58N 34°41' E 135°11'0 0.0
2018-Apr-20 13:28N 34°41' E 135°11'0 0.0
2018-Apr-20 12:58N 34°41' E 135°11'0 0.0
2018-Apr-20 12:28N 34°41' E 135°11'2 5.2
2018-Apr-20 12:00N 34°38' E 135°11'4 8.1
2018-Apr-20 11:30N 34°37' E 135°06'3 6.0
2018-Apr-20 11:00N 34°38' E 135°10'3 5.9
2018-Apr-20 10:30N 34°41' E 135°11'0 0.0
2018-Apr-20 10:00N 34°41' E 135°11'2 4.6
2018-Apr-20 09:30N 34°39' E 135°11'4 7.3
2018-Apr-20 09:01N 34°37' E 135°07'4 8.1
2018-Apr-20 08:30N 34°39' E 135°11'1 2.7
2018-Apr-20 07:59N 34°41' E 135°11'0 0.0
2018-Apr-20 07:29N 34°41' E 135°11'0 0.0
2018-Apr-20 06:59N 34°41' E 135°11'3 5.6
2018-Apr-20 06:31N 34°38' E 135°11'1 1.9
2018-Apr-20 06:00N 34°38' E 135°10'3 6.1
2018-Apr-20 05:31N 34°41' E 135°11'0 0.0
2018-Apr-20 05:00N 34°41' E 135°11'2 4.0
2018-Apr-20 04:30N 34°39' E 135°11'4 8.0
2018-Apr-20 04:01N 34°37' E 135°07'2 4.8
2018-Apr-20 03:31N 34°38' E 135°10'3 5.9
2018-Apr-20 03:00N 34°41' E 135°11'0 0.0
2018-Apr-20 02:29N 34°41' E 135°11'0 0.0
2018-Apr-20 01:59N 34°41' E 135°11'0 0.0
2018-Apr-20 01:29N 34°41' E 135°11'0 0.0
2018-Apr-20 00:59N 34°41' E 135°11'0 0.0
2018-Apr-20 00:29N 34°41' E 135°11'0 0.0
2018-Apr-19 23:59N 34°41' E 135°11'0 0.0
2018-Apr-19 23:29N 34°41' E 135°11'0 0.0
2018-Apr-19 22:59N 34°41' E 135°11'0 0.0
2018-Apr-19 22:29N 34°41' E 135°11'0 0.0
2018-Apr-19 21:59N 34°41' E 135°11'0 0.0
2018-Apr-19 21:29N 34°41' E 135°11'0 0.0
2018-Apr-19 20:59N 34°41' E 135°11'0 0.0
2018-Apr-19 20:29N 34°41' E 135°11'0 0.0
2018-Apr-19 19:59N 34°41' E 135°11'0 0.0
2018-Apr-19 19:29N 34°41' E 135°11'0 0.0
2018-Apr-19 18:59N 34°41' E 135°11'0 0.0
2018-Apr-19 18:29N 34°41' E 135°11'0 0.0
2018-Apr-19 17:59N 34°41' E 135°11'0 0.0
2018-Apr-19 17:29N 34°41' E 135°11'0 0.0
2018-Apr-19 16:59N 34°41' E 135°11'0 0.0
2018-Apr-19 16:29N 34°41' E 135°11'0 0.0
2018-Apr-19 15:59N 34°41' E 135°11'0 0.0
2018-Apr-19 15:29N 34°41' E 135°11'0 0.0
2018-Apr-19 14:59N 34°41' E 135°11'0 0.0
2018-Apr-19 14:29N 34°41' E 135°11'0 0.0
2018-Apr-19 13:59N 34°41' E 135°11'0 0.0
2018-Apr-19 13:29N 34°41' E 135°11'0 0.0
2018-Apr-19 12:59N 34°41' E 135°11'0 0.0
2018-Apr-19 12:29N 34°41' E 135°11'2 5.1
2018-Apr-19 12:00N 34°38' E 135°11'3 6.5
2018-Apr-19 11:30N 34°37' E 135°07'2 4.6
2018-Apr-19 11:00N 34°38' E 135°10'3 6.0
2018-Apr-19 10:30N 34°41' E 135°11'0 0.0
2018-Apr-19 10:00N 34°41' E 135°11'3 5.4
2018-Apr-19 09:30N 34°38' E 135°11'3 6.5
2018-Apr-19 09:00N 34°37' E 135°07'4 8.5
2018-Apr-19 08:30N 34°40' E 135°11'1 2.6
2018-Apr-19 08:00N 34°41' E 135°11'0 0.0
2018-Apr-19 07:30N 34°41' E 135°11'0 0.0
2018-Apr-19 07:00N 34°41' E 135°11'2 4.6
2018-Apr-19 06:30N 34°39' E 135°11'1 2.3
2018-Apr-19 06:00N 34°38' E 135°10'3 6.0
2018-Apr-19 05:30N 34°41' E 135°11'0 0.0
2018-Apr-19 05:00N 34°41' E 135°11'2 3.8
2018-Apr-19 04:30N 34°39' E 135°11'4 7.9
2018-Apr-19 04:00N 34°37' E 135°07'2 4.9
2018-Apr-19 03:30N 34°38' E 135°10'3 5.9
2018-Apr-19 03:00N 34°41' E 135°11'0 0.0
2018-Apr-19 02:29N 34°41' E 135°11'0 0.0
2018-Apr-19 01:59N 34°41' E 135°11'0 0.0
2018-Apr-19 01:29N 34°41' E 135°11'0 0.0
2018-Apr-19 00:59N 34°41' E 135°11'0 0.0
2018-Apr-19 00:29N 34°41' E 135°11'0 0.0
2018-Apr-18 23:56N 34°41' E 135°11'0 0.0
2018-Apr-18 23:29N 34°41' E 135°11'0 0.0
2018-Apr-18 22:59N 34°41' E 135°11'0 0.0
2018-Apr-18 22:29N 34°41' E 135°11'0 0.0
2018-Apr-18 21:59N 34°41' E 135°11'0 0.0
2018-Apr-18 21:29N 34°41' E 135°11'0 0.0
2018-Apr-18 20:56N 34°41' E 135°11'0 0.0
2018-Apr-18 20:29N 34°41' E 135°11'0 0.0
2018-Apr-18 19:59N 34°41' E 135°11'0 0.0
2018-Apr-18 19:29N 34°41' E 135°11'0 0.0
2018-Apr-18 18:59N 34°41' E 135°11'0 0.0
2018-Apr-18 18:29N 34°41' E 135°11'0 0.0
2018-Apr-18 17:59N 34°41' E 135°11'0 0.0
2018-Apr-18 17:29N 34°41' E 135°11'0 0.0
2018-Apr-18 16:59N 34°41' E 135°11'0 0.0
2018-Apr-18 16:29N 34°41' E 135°11'0 0.0
2018-Apr-18 15:59N 34°41' E 135°11'0 0.0
2018-Apr-18 15:29N 34°41' E 135°11'0 0.0
2018-Apr-18 14:59N 34°41' E 135°11'0 0.0
2018-Apr-18 14:29N 34°41' E 135°11'0 0.0
2018-Apr-18 13:59N 34°41' E 135°11'0 0.0
2018-Apr-18 13:29N 34°41' E 135°11'0 0.0
2018-Apr-18 12:59N 34°41' E 135°11'0 0.0
2018-Apr-18 12:29N 34°41' E 135°11'3 5.3
2018-Apr-18 12:00N 34°38' E 135°11'4 7.9
2018-Apr-18 11:30N 34°37' E 135°06'3 5.6
2018-Apr-18 11:00N 34°38' E 135°10'3 6.5
2018-Apr-18 10:30N 34°41' E 135°11'0 0.0
2018-Apr-18 10:00N 34°41' E 135°11'2 4.6
2018-Apr-18 09:30N 34°39' E 135°11'4 7.2
2018-Apr-18 09:00N 34°37' E 135°07'4 8.3
2018-Apr-18 08:31N 34°39' E 135°11'1 2.4
2018-Apr-18 07:55N 34°41' E 135°11'0 0.0
2018-Apr-18 07:28N 34°41' E 135°11'0 0.0
2018-Apr-18 06:58N 34°41' E 135°11'3 6.3
2018-Apr-18 06:30N 34°38' E 135°11'1 1.5
2018-Apr-18 06:00N 34°38' E 135°10'3 5.9
2018-Apr-18 05:31N 34°41' E 135°11'0 0.0
2018-Apr-18 04:59N 34°41' E 135°11'2 4.1
2018-Apr-18 04:30N 34°39' E 135°11'4 7.3
2018-Apr-18 04:00N 34°37' E 135°08'2 4.2
2018-Apr-18 03:30N 34°38' E 135°10'3 6.1
2018-Apr-18 03:00N 34°41' E 135°11'0 0.0
2018-Apr-18 02:28N 34°41' E 135°11'0 0.0
2018-Apr-18 01:58N 34°41' E 135°11'0 0.0
2018-Apr-18 01:28N 34°41' E 135°11'0 0.0
2018-Apr-18 00:58N 34°41' E 135°11'0 0.0
2018-Apr-18 00:28N 34°41' E 135°11'0 0.0
2018-Apr-17 23:58N 34°41' E 135°11'0 0.0
2018-Apr-17 23:28N 34°41' E 135°11'0 0.0
2018-Apr-17 22:58N 34°41' E 135°11'0 0.0
2018-Apr-17 22:28N 34°41' E 135°11'0 0.0
2018-Apr-17 21:58N 34°41' E 135°11'0 0.0
2018-Apr-17 21:28N 34°41' E 135°11'0 0.0
2018-Apr-17 20:58N 34°41' E 135°11'0 0.0
2018-Apr-17 20:28N 34°41' E 135°11'0 0.0
2018-Apr-17 19:58N 34°41' E 135°11'0 0.0
2018-Apr-17 19:28N 34°41' E 135°11'0 0.0
2018-Apr-17 18:58N 34°41' E 135°11'0 0.0
2018-Apr-17 18:28N 34°41' E 135°11'0 0.0
2018-Apr-17 17:58N 34°41' E 135°11'0 0.0
2018-Apr-17 17:28N 34°41' E 135°11'0 0.0
2018-Apr-17 16:58N 34°41' E 135°11'0 0.0
2018-Apr-17 16:28N 34°41' E 135°11'0 0.0
2018-Apr-17 15:58N 34°41' E 135°11'0 0.0
2018-Apr-17 15:28N 34°41' E 135°11'0 0.0
2018-Apr-17 14:58N 34°41' E 135°11'0 0.0
2018-Apr-17 14:28N 34°41' E 135°11'0 0.0
2018-Apr-17 13:58N 34°41' E 135°11'0 0.0
2018-Apr-17 13:28N 34°41' E 135°11'0 0.0
2018-Apr-17 12:58N 34°41' E 135°11'0 0.0
2018-Apr-17 12:28N 34°41' E 135°11'3 5.7
2018-Apr-17 12:00N 34°38' E 135°11'4 7.5
2018-Apr-17 11:30N 34°37' E 135°06'3 5.6
2018-Apr-17 11:00N 34°38' E 135°10'3 6.4
2018-Apr-17 10:30N 34°41' E 135°11'0 0.0
2018-Apr-17 09:59N 34°41' E 135°11'3 5.4
2018-Apr-17 09:30N 34°38' E 135°11'3 6.7
2018-Apr-17 09:00N 34°37' E 135°07'5 9.0
2018-Apr-17 08:30N 34°40' E 135°11'1 2.1
2018-Apr-17 07:59N 34°41' E 135°11'0 0.0
2018-Apr-17 07:29N 34°41' E 135°11'0 0.0
2018-Apr-17 06:59N 34°41' E 135°11'3 5.5
2018-Apr-17 06:30N 34°38' E 135°10'1 1.1
2018-Apr-17 06:01N 34°38' E 135°10'3 5.8
2018-Apr-17 05:30N 34°41' E 135°11'0 0.0
2018-Apr-17 04:58N 34°41' E 135°11'2 4.3
2018-Apr-17 04:31N 34°39' E 135°11'4 8.0
2018-Apr-17 04:00N 34°37' E 135°07'2 4.9
2018-Apr-17 03:30N 34°38' E 135°10'3 6.2
2018-Apr-17 02:59N 34°41' E 135°11'0 0.0
2018-Apr-17 02:30N 34°41' E 135°11'0 0.0
2018-Apr-17 02:00N 34°41' E 135°11'0 0.0
2018-Apr-17 01:29N 34°41' E 135°11'0 0.0
2018-Apr-17 00:58N 34°41' E 135°11'0 0.0
2018-Apr-17 00:29N 34°41' E 135°11'0 0.0
2018-Apr-16 23:59N 34°41' E 135°11'0 0.0
2018-Apr-16 23:29N 34°41' E 135°11'0 0.0
2018-Apr-16 22:59N 34°41' E 135°11'0 0.0
2018-Apr-16 22:29N 34°41' E 135°11'0 0.0
2018-Apr-16 21:58N 34°41' E 135°11'0 0.0
2018-Apr-16 21:28N 34°41' E 135°11'0 0.0
2018-Apr-16 20:58N 34°41' E 135°11'0 0.0
2018-Apr-16 20:29N 34°41' E 135°11'0 0.0
2018-Apr-16 19:59N 34°41' E 135°11'0 0.0
2018-Apr-16 19:29N 34°41' E 135°11'0 0.0
2018-Apr-16 18:59N 34°41' E 135°11'0 0.0
2018-Apr-16 18:28N 34°41' E 135°11'0 0.0
2018-Apr-16 17:58N 34°41' E 135°11'0 0.0
2018-Apr-16 17:29N 34°41' E 135°11'0 0.0
2018-Apr-16 16:59N 34°41' E 135°11'0 0.0
2018-Apr-16 16:28N 34°41' E 135°11'0 0.0
2018-Apr-16 15:59N 34°41' E 135°11'0 0.0
2018-Apr-16 15:28N 34°41' E 135°11'0 0.0
2018-Apr-16 14:58N 34°41' E 135°11'0 0.0
2018-Apr-16 14:28N 34°41' E 135°11'0 0.0
2018-Apr-16 13:58N 34°41' E 135°11'0 0.0
2018-Apr-16 13:28N 34°41' E 135°11'0 0.0
2018-Apr-16 12:58N 34°41' E 135°11'0 0.0
2018-Apr-16 12:28N 34°41' E 135°11'3 5.5
2018-Apr-16 12:00N 34°38' E 135°11'4 7.7
2018-Apr-16 11:30N 34°37' E 135°06'3 5.2
2018-Apr-16 11:01N 34°38' E 135°09'3 6.8
2018-Apr-16 10:30N 34°41' E 135°11'0 0.0
2018-Apr-16 10:00N 34°41' E 135°11'3 5.3
2018-Apr-16 09:30N 34°38' E 135°11'4 7.1
2018-Apr-16 09:00N 34°37' E 135°07'5 9.0
2018-Apr-16 08:30N 34°39' E 135°11'1 2.8
2018-Apr-16 08:00N 34°41' E 135°11'0 0.0
2018-Apr-16 07:29N 34°41' E 135°11'0 0.0
2018-Apr-16 06:59N 34°41' E 135°11'3 5.4
2018-Apr-16 06:30N 34°38' E 135°11'1 1.6
2018-Apr-16 06:01N 34°38' E 135°10'3 6.0
2018-Apr-16 05:30N 34°41' E 135°11'0 0.0
2018-Apr-16 05:00N 34°41' E 135°11'2 3.9
2018-Apr-16 04:30N 34°39' E 135°11'4 7.8
2018-Apr-16 04:00N 34°37' E 135°07'2 4.9
2018-Apr-16 03:30N 34°38' E 135°10'3 5.4
2018-Apr-16 02:59N 34°41' E 135°11'0 0.0
2018-Apr-16 02:30N 34°41' E 135°11'0 0.0
2018-Apr-16 02:00N 34°41' E 135°11'0 0.0
2018-Apr-16 01:30N 34°41' E 135°11'0 0.0
2018-Apr-16 01:00N 34°41' E 135°11'0 0.0
2018-Apr-16 00:30N 34°41' E 135°11'0 0.0
2018-Apr-16 00:00N 34°41' E 135°11'0 0.0
2018-Apr-15 23:30N 34°41' E 135°11'0 0.0
2018-Apr-15 23:00N 34°41' E 135°11'0 0.0
2018-Apr-15 22:30N 34°41' E 135°11'0 0.0
2018-Apr-15 22:00N 34°41' E 135°11'0 0.0
2018-Apr-15 21:30N 34°41' E 135°11'0 0.0
2018-Apr-15 21:00N 34°41' E 135°11'0 0.0
2018-Apr-15 20:30N 34°41' E 135°11'0 0.0
2018-Apr-15 20:00N 34°41' E 135°11'0 0.0
2018-Apr-15 19:30N 34°41' E 135°11'0 0.0
2018-Apr-15 19:00N 34°41' E 135°11'0 0.0
2018-Apr-15 18:30N 34°41' E 135°11'0 0.0
2018-Apr-15 18:00N 34°41' E 135°11'0 0.0
2018-Apr-15 17:30N 34°41' E 135°11'0 0.0
2018-Apr-15 17:00N 34°41' E 135°11'0 0.0
2018-Apr-15 16:30N 34°41' E 135°11'0 0.0
2018-Apr-15 16:00N 34°41' E 135°11'0 0.0
2018-Apr-15 15:30N 34°41' E 135°11'0 0.0
2018-Apr-15 15:00N 34°41' E 135°11'0 0.0
2018-Apr-15 14:30N 34°41' E 135°11'0 0.0
2018-Apr-15 14:00N 34°41' E 135°11'0 0.0
2018-Apr-15 13:30N 34°41' E 135°11'0 0.0
2018-Apr-15 13:00N 34°41' E 135°11'0 0.0
2018-Apr-15 12:30N 34°41' E 135°11'2 5.0
2018-Apr-15 12:00N 34°38' E 135°11'4 8.0
2018-Apr-15 11:30N 34°36' E 135°06'3 5.9
2018-Apr-15 11:00N 34°38' E 135°10'3 6.5
2018-Apr-15 10:30N 34°41' E 135°11'0 0.0
2018-Apr-15 09:59N 34°41' E 135°11'3 5.3
2018-Apr-15 09:30N 34°38' E 135°11'3 7.0
2018-Apr-15 09:01N 34°37' E 135°07'5 9.0
2018-Apr-15 08:30N 34°39' E 135°11'1 2.7
2018-Apr-15 07:58N 34°41' E 135°11'0 0.0
2018-Apr-15 07:28N 34°41' E 135°11'0 0.0
2018-Apr-15 06:58N 34°41' E 135°11'3 6.3
2018-Apr-15 06:31N 34°38' E 135°11'0 0.7
2018-Apr-15 06:00N 34°38' E 135°10'3 5.6
2018-Apr-15 05:30N 34°41' E 135°11'0 0.0
2018-Apr-15 05:00N 34°41' E 135°11'2 3.7
2018-Apr-15 04:31N 34°39' E 135°11'4 7.4
2018-Apr-15 04:00N 34°37' E 135°08'2 4.5
2018-Apr-15 03:31N 34°38' E 135°10'3 6.1
2018-Apr-15 03:00N 34°41' E 135°11'0 0.0
2018-Apr-15 02:30N 34°41' E 135°11'0 0.0
2018-Apr-15 02:00N 34°41' E 135°11'0 0.0
2018-Apr-15 01:30N 34°41' E 135°11'0 0.0
2018-Apr-15 00:57N 34°41' E 135°11'0 0.0
2018-Apr-15 00:30N 34°41' E 135°11'0 0.0
2018-Apr-15 00:00N 34°41' E 135°11'0 0.0
2018-Apr-14 23:30N 34°41' E 135°11'0 0.0
2018-Apr-14 23:00N 34°41' E 135°11'0 0.0
2018-Apr-14 22:30N 34°41' E 135°11'0 0.0
2018-Apr-14 22:00N 34°41' E 135°11'0 0.0
2018-Apr-14 21:30N 34°41' E 135°11'0 0.0
2018-Apr-14 20:57N 34°41' E 135°11'0 0.0
2018-Apr-14 20:30N 34°41' E 135°11'0 0.0
2018-Apr-14 20:00N 34°41' E 135°11'0 0.0
2018-Apr-14 19:30N 34°41' E 135°11'0 0.0
2018-Apr-14 19:00N 34°41' E 135°11'0 0.0
2018-Apr-14 18:30N 34°41' E 135°11'0 0.0
2018-Apr-14 18:00N 34°41' E 135°11'0 0.0
2018-Apr-14 17:30N 34°41' E 135°11'0 0.0
2018-Apr-14 17:00N 34°41' E 135°11'0 0.0
2018-Apr-14 16:30N 34°41' E 135°11'0 0.0
2018-Apr-14 16:00N 34°41' E 135°11'0 0.0
2018-Apr-14 15:30N 34°41' E 135°11'0 0.0
2018-Apr-14 15:00N 34°41' E 135°11'0 0.0
2018-Apr-14 14:30N 34°41' E 135°11'0 0.0
2018-Apr-14 14:00N 34°41' E 135°11'0 0.0
2018-Apr-14 13:30N 34°41' E 135°11'0 0.0
2018-Apr-14 13:00N 34°41' E 135°11'0 0.0
2018-Apr-14 12:30N 34°41' E 135°11'2 3.3
2018-Apr-14 12:01N 34°39' E 135°11'4 7.1
2018-Apr-14 11:31N 34°37' E 135°08'2 4.0
2018-Apr-14 11:01N 34°38' E 135°10'3 5.8
2018-Apr-14 10:31N 34°41' E 135°11'0 0.0
2018-Apr-14 09:57N 34°41' E 135°11'2 4.1
2018-Apr-14 09:30N 34°39' E 135°11'3 5.0
2018-Apr-14 09:00N 34°37' E 135°09'3 6.6
2018-Apr-14 08:30N 34°40' E 135°11'1 1.8
2018-Apr-14 07:59N 34°41' E 135°11'0 0.0
2018-Apr-14 07:29N 34°41' E 135°11'0 0.0
2018-Apr-14 06:59N 34°41' E 135°11'1 2.3
2018-Apr-14 06:30N 34°40' E 135°12'2 3.5
2018-Apr-14 06:00N 34°38' E 135°11'3 5.0
2018-Apr-14 05:30N 34°41' E 135°11'0 0.0
2018-Apr-14 04:58N 34°41' E 135°11'2 4.3
2018-Apr-14 04:30N 34°39' E 135°11'3 6.7
2018-Apr-14 04:00N 34°37' E 135°08'2 3.8
2018-Apr-14 03:30N 34°38' E 135°10'3 5.8
2018-Apr-14 03:00N 34°41' E 135°11'0 0.0
2018-Apr-14 02:30N 34°41' E 135°11'0 0.0
2018-Apr-14 01:58N 34°41' E 135°11'0 0.0
2018-Apr-14 01:28N 34°41' E 135°11'0 0.0
2018-Apr-14 00:58N 34°41' E 135°11'0 0.0
2018-Apr-14 00:25N 34°41' E 135°11'0 0.0
2018-Apr-13 23:58N 34°41' E 135°11'0 0.0
2018-Apr-13 23:28N 34°41' E 135°11'0 0.0
2018-Apr-13 22:58N 34°41' E 135°11'0 0.0
2018-Apr-13 22:28N 34°41' E 135°11'0 0.0
2018-Apr-13 21:58N 34°41' E 135°11'0 0.0
2018-Apr-13 21:28N 34°41' E 135°11'0 0.0
2018-Apr-13 20:58N 34°41' E 135°11'0 0.0
2018-Apr-13 20:28N 34°41' E 135°11'0 0.0
2018-Apr-13 19:58N 34°41' E 135°11'0 0.0
2018-Apr-13 19:28N 34°41' E 135°11'0 0.0
2018-Apr-13 18:55N 34°41' E 135°11'0 0.0
2018-Apr-13 18:28N 34°41' E 135°11'0 0.0
2018-Apr-13 17:58N 34°41' E 135°11'0 0.0
2018-Apr-13 17:28N 34°41' E 135°11'0 0.0
2018-Apr-13 16:58N 34°41' E 135°11'0 0.0
2018-Apr-13 16:28N 34°41' E 135°11'0 0.0
2018-Apr-13 15:58N 34°41' E 135°11'0 0.0
2018-Apr-13 15:28N 34°41' E 135°11'0 0.0
2018-Apr-13 14:58N 34°41' E 135°11'0 0.0
2018-Apr-13 14:28N 34°41' E 135°11'0 0.0
2018-Apr-13 13:58N 34°41' E 135°11'0 0.0
2018-Apr-13 13:28N 34°41' E 135°11'0 0.0
2018-Apr-13 12:58N 34°41' E 135°11'0 0.0
2018-Apr-13 12:28N 34°41' E 135°11'3 5.6
2018-Apr-13 12:00N 34°38' E 135°11'3 5.2
2018-Apr-13 11:30N 34°37' E 135°08'2 3.2
2018-Apr-13 11:00N 34°38' E 135°10'3 6.7
2018-Apr-13 10:30N 34°41' E 135°11'0 0.0
2018-Apr-13 09:59N 34°41' E 135°11'3 5.9
2018-Apr-13 09:30N 34°38' E 135°10'3 6.9
2018-Apr-13 09:00N 34°37' E 135°06'5 9.6
2018-Apr-13 08:31N 34°39' E 135°11'2 3.1
2018-Apr-13 08:00N 34°41' E 135°11'0 0.0
2018-Apr-13 07:30N 34°41' E 135°11'0 0.0
2018-Apr-13 07:00N 34°41' E 135°11'2 5.1
2018-Apr-13 06:31N 34°38' E 135°11'1 2.4
2018-Apr-13 06:00N 34°38' E 135°10'3 6.2
2018-Apr-13 05:30N 34°41' E 135°11'0 0.0
2018-Apr-13 04:58N 34°41' E 135°11'2 4.5
2018-Apr-13 04:30N 34°39' E 135°11'4 7.6
2018-Apr-13 04:00N 34°37' E 135°07'2 4.9
2018-Apr-13 03:31N 34°38' E 135°10'3 6.3
2018-Apr-13 03:00N 34°41' E 135°11'0 0.0
2018-Apr-13 02:29N 34°41' E 135°11'0 0.0
2018-Apr-13 01:59N 34°41' E 135°11'0 0.0
2018-Apr-13 01:29N 34°41' E 135°11'0 0.0
2018-Apr-13 00:59N 34°41' E 135°11'0 0.0
2018-Apr-13 00:29N 34°41' E 135°11'0 0.0
2018-Apr-12 23:59N 34°41' E 135°11'0 0.0
2018-Apr-12 23:29N 34°41' E 135°11'0 0.0
2018-Apr-12 22:59N 34°41' E 135°11'0 0.0
2018-Apr-12 22:29N 34°41' E 135°11'0 0.0
2018-Apr-12 21:59N 34°41' E 135°11'0 0.0
2018-Apr-12 21:26N 34°41' E 135°11'0 0.0
2018-Apr-12 20:59N 34°41' E 135°11'0 0.0
2018-Apr-12 20:29N 34°41' E 135°11'0 0.0
2018-Apr-12 19:59N 34°41' E 135°11'0 0.0
2018-Apr-12 19:29N 34°41' E 135°11'0 0.0
2018-Apr-12 18:59N 34°41' E 135°11'0 0.0
2018-Apr-12 18:28N 34°41' E 135°11'0 0.0
2018-Apr-12 17:59N 34°41' E 135°11'0 0.0
2018-Apr-12 17:29N 34°41' E 135°11'0 0.0
2018-Apr-12 16:59N 34°41' E 135°11'0 0.0
2018-Apr-12 16:29N 34°41' E 135°11'0 0.0
2018-Apr-12 15:59N 34°41' E 135°11'0 0.0
2018-Apr-12 15:29N 34°41' E 135°11'0 0.0
2018-Apr-12 14:59N 34°41' E 135°11'0 0.0
2018-Apr-12 14:29N 34°41' E 135°11'0 0.0
2018-Apr-12 13:59N 34°41' E 135°11'0 0.0
2018-Apr-12 13:29N 34°41' E 135°11'0 0.0
2018-Apr-12 12:59N 34°41' E 135°11'0 0.0
2018-Apr-12 12:29N 34°41' E 135°11'2 5.2
2018-Apr-12 12:00N 34°38' E 135°11'4 7.3
2018-Apr-12 11:30N 34°37' E 135°07'2 4.5
2018-Apr-12 11:00N 34°38' E 135°09'3 6.4
2018-Apr-12 10:30N 34°41' E 135°11'0 0.0
2018-Apr-12 09:57N 34°41' E 135°11'3 5.7
2018-Apr-12 09:30N 34°38' E 135°10'3 6.5
2018-Apr-12 09:00N 34°37' E 135°07'4 8.7
2018-Apr-12 08:30N 34°39' E 135°11'1 2.8
2018-Apr-12 07:59N 34°41' E 135°11'0 0.0
2018-Apr-12 07:29N 34°41' E 135°11'0 0.0
2018-Apr-12 06:59N 34°41' E 135°11'3 5.3
2018-Apr-12 06:30N 34°38' E 135°11'1 1.4
2018-Apr-12 06:00N 34°38' E 135°10'3 6.1
2018-Apr-12 05:30N 34°41' E 135°11'0 0.0
2018-Apr-12 04:59N 34°41' E 135°11'2 4.3
2018-Apr-12 04:30N 34°39' E 135°11'3 6.6
2018-Apr-12 04:00N 34°37' E 135°08'2 3.9
2018-Apr-12 03:30N 34°38' E 135°10'3 6.0
2018-Apr-12 03:00N 34°41' E 135°11'0 0.0
2018-Apr-12 02:29N 34°41' E 135°11'0 0.0
2018-Apr-12 01:59N 34°41' E 135°11'0 0.0
2018-Apr-12 01:29N 34°41' E 135°11'0 0.0
2018-Apr-12 00:59N 34°41' E 135°11'0 0.0
2018-Apr-12 00:29N 34°41' E 135°11'0 0.0
2018-Apr-11 23:59N 34°41' E 135°11'0 0.0
2018-Apr-11 23:29N 34°41' E 135°11'0 0.0
2018-Apr-11 22:59N 34°41' E 135°11'0 0.0
2018-Apr-11 22:29N 34°41' E 135°11'0 0.0
2018-Apr-11 21:59N 34°41' E 135°11'0 0.0
2018-Apr-11 21:29N 34°41' E 135°11'0 0.0
2018-Apr-11 20:59N 34°41' E 135°11'0 0.0
2018-Apr-11 20:29N 34°41' E 135°11'0 0.0
2018-Apr-11 19:59N 34°41' E 135°11'0 0.0
2018-Apr-11 19:29N 34°41' E 135°11'0 0.0
2018-Apr-11 18:59N 34°41' E 135°11'  

Dump ship's entire track history